createdAt,value
2022-10-07T00:00:01.260Z,4.57
2022-10-07T00:01:02.314Z,4.00
2022-10-07T00:02:01.298Z,4.50
2022-10-07T00:03:00.970Z,3.70
2022-10-07T00:04:00.977Z,3.67
2022-10-07T00:05:01.763Z,3.77
2022-10-07T00:06:03.509Z,5.07
2022-10-07T00:07:00.952Z,4.50
2022-10-07T00:08:01.248Z,5.10
2022-10-07T00:09:00.944Z,4.50
2022-10-07T00:10:01.397Z,4.80
2022-10-07T00:11:06.643Z,6.07
2022-10-07T00:12:00.948Z,6.87
2022-10-07T00:13:00.965Z,4.87
2022-10-07T00:14:03.552Z,5.50
2022-10-07T00:15:01.082Z,4.50
2022-10-07T00:16:02.926Z,4.80
2022-10-07T00:17:01.041Z,5.27
2022-10-07T00:18:01.407Z,4.17
2022-10-07T00:19:04.692Z,4.10
2022-10-07T00:20:01.283Z,3.87
2022-10-07T00:21:04.070Z,3.03
2022-10-07T00:22:00.943Z,5.43
2022-10-07T00:23:01.361Z,3.87
2022-10-07T00:24:01.880Z,3.53
2022-10-07T00:25:01.290Z,4.80
2022-10-07T00:26:02.718Z,4.30
2022-10-07T00:27:01.285Z,3.70
2022-10-07T00:28:00.975Z,4.10
2022-10-07T00:29:02.221Z,4.30
2022-10-07T00:30:01.254Z,3.70
2022-10-07T00:31:04.625Z,3.00
2022-10-07T00:32:01.263Z,3.40
2022-10-07T00:33:01.241Z,2.27
2022-10-07T00:34:02.630Z,2.70
2022-10-07T00:35:01.269Z,2.07
2022-10-07T00:36:05.217Z,3.70
2022-10-07T00:37:00.950Z,3.50
2022-10-07T00:38:01.177Z,4.20
2022-10-07T00:39:04.183Z,3.60
2022-10-07T00:40:00.931Z,2.50
2022-10-07T00:41:00.953Z,3.30
2022-10-07T00:42:01.297Z,3.67
2022-10-07T00:43:18.831Z,4.60
2022-10-07T00:44:20.418Z,4.53
2022-10-07T00:45:00.929Z,4.77
2022-10-07T00:46:06.520Z,4.97
2022-10-07T00:47:06.339Z,5.83
2022-10-07T00:48:00.921Z,6.40
2022-10-07T00:49:04.658Z,6.73
2022-10-07T00:50:06.661Z,6.97
2022-10-07T00:51:02.433Z,5.57
2022-10-07T00:52:01.312Z,5.53
2022-10-07T00:53:02.471Z,4.87
2022-10-07T00:54:03.069Z,5.07
2022-10-07T00:55:05.090Z,4.70
2022-10-07T00:56:04.385Z,5.00
2022-10-07T00:57:01.003Z,6.40
2022-10-07T00:58:03.951Z,4.10
2022-10-07T00:59:01.663Z,4.40
2022-10-07T01:00:03.767Z,3.80
2022-10-07T01:01:01.447Z,5.30
2022-10-07T01:02:01.045Z,5.27
2022-10-07T01:03:01.554Z,5.10
2022-10-07T01:04:01.293Z,4.57
2022-10-07T01:05:05.039Z,5.40
2022-10-07T01:06:01.490Z,5.07
2022-10-07T01:07:01.630Z,6.10
2022-10-07T01:08:01.596Z,6.90
2022-10-07T01:09:00.945Z,6.60
2022-10-07T01:10:02.489Z,6.30
2022-10-07T01:11:14.257Z,5.20
2022-10-07T01:12:11.119Z,5.20
2022-10-07T01:13:08.001Z,4.60
2022-10-07T01:14:09.084Z,4.63
2022-10-07T01:15:08.583Z,4.93
2022-10-07T01:16:09.132Z,4.67
2022-10-07T01:17:08.253Z,4.23
2022-10-07T01:18:08.011Z,4.20
2022-10-07T01:19:15.501Z,4.20
2022-10-07T01:20:15.579Z,4.50
2022-10-07T01:21:08.006Z,4.80
2022-10-07T01:22:18.163Z,6.60
2022-10-07T01:23:18.136Z,6.10
2022-10-07T01:24:16.696Z,6.50
2022-10-07T01:25:12.777Z,6.90
2022-10-07T01:26:20.410Z,7.33
2022-10-07T01:27:05.233Z,6.23
2022-10-07T01:28:06.452Z,8.93
2022-10-07T01:29:06.472Z,9.67
2022-10-07T01:30:04.069Z,10.00
2022-10-07T01:31:06.737Z,10.50
2022-10-07T01:32:06.678Z,9.23
2022-10-07T01:33:05.869Z,10.37
2022-10-07T01:34:04.073Z,9.57
2022-10-07T01:35:04.006Z,7.37
2022-10-07T01:36:06.406Z,9.30
2022-10-07T01:37:04.803Z,5.70
2022-10-07T01:38:07.602Z,4.90
2022-10-07T01:39:06.564Z,4.43
2022-10-07T01:40:06.441Z,5.80
2022-10-07T01:41:07.981Z,4.00
2022-10-07T01:42:01.385Z,6.00
2022-10-07T01:43:01.343Z,6.10
2022-10-07T01:44:03.102Z,5.50
2022-10-07T01:45:03.214Z,6.00
2022-10-07T01:46:02.725Z,5.67
2022-10-07T01:47:00.984Z,5.77
2022-10-07T01:48:01.271Z,5.10
2022-10-07T01:49:00.914Z,4.70
2022-10-07T01:50:00.936Z,5.70
2022-10-07T01:51:01.393Z,4.90
2022-10-07T01:52:17.447Z,4.73
2022-10-07T01:53:16.249Z,4.40
2022-10-07T01:54:07.708Z,5.17
2022-10-07T01:55:20.411Z,4.77
2022-10-07T01:56:14.322Z,5.10
2022-10-07T01:57:13.447Z,5.30
2022-10-07T01:58:12.416Z,5.90
2022-10-07T01:59:19.684Z,5.60
2022-10-07T02:00:08.226Z,6.17
2022-10-07T02:01:10.653Z,5.37
2022-10-07T02:02:05.699Z,6.20
2022-10-07T02:03:18.769Z,5.60
2022-10-07T02:04:20.412Z,4.87
2022-10-07T02:05:11.869Z,5.10
2022-10-07T02:06:10.495Z,4.47
2022-10-07T02:07:14.177Z,5.20
2022-10-07T02:08:12.481Z,6.00
2022-10-07T02:09:05.646Z,4.90
2022-10-07T02:10:11.225Z,5.57
2022-10-07T02:11:11.990Z,5.27
2022-10-07T02:12:09.604Z,5.87
2022-10-07T02:13:08.152Z,5.57
2022-10-07T02:14:10.308Z,4.50
2022-10-07T02:15:07.476Z,4.17
2022-10-07T02:16:10.223Z,3.67
2022-10-07T02:17:06.522Z,4.20
2022-10-07T02:18:06.291Z,3.77
2022-10-07T02:19:05.053Z,5.90
2022-10-07T02:20:04.738Z,4.60
2022-10-07T02:21:07.216Z,4.37
2022-10-07T02:22:03.166Z,4.10
2022-10-07T02:23:05.438Z,5.00
2022-10-07T02:24:02.751Z,3.93
2022-10-07T02:25:00.922Z,5.00
2022-10-07T02:26:04.370Z,5.30
2022-10-07T02:27:05.275Z,4.90
2022-10-07T02:28:04.388Z,4.87
2022-10-07T02:29:06.032Z,4.37
2022-10-07T02:30:08.159Z,5.43
2022-10-07T02:31:03.809Z,5.00
2022-10-07T02:32:06.423Z,5.20
2022-10-07T02:33:05.618Z,5.60
2022-10-07T02:34:04.556Z,4.90
2022-10-07T02:35:06.674Z,4.90
2022-10-07T02:36:07.795Z,5.10
2022-10-07T02:37:07.243Z,4.60
2022-10-07T02:38:07.048Z,5.80
2022-10-07T02:39:02.618Z,4.70
2022-10-07T02:40:02.552Z,3.80
2022-10-07T02:41:10.927Z,5.30
2022-10-07T02:42:08.792Z,5.90
2022-10-07T02:43:05.982Z,5.30
2022-10-07T02:44:12.341Z,4.77
2022-10-07T02:45:11.311Z,4.53
2022-10-07T02:46:07.181Z,4.23
2022-10-07T02:47:06.396Z,5.00
2022-10-07T02:48:10.351Z,6.10
2022-10-07T02:49:05.792Z,4.33
2022-10-07T02:50:06.557Z,5.00
2022-10-07T02:51:07.284Z,5.10
2022-10-07T02:52:05.506Z,4.40
2022-10-07T02:53:02.337Z,4.93
2022-10-07T02:54:03.479Z,5.50
2022-10-07T02:55:05.887Z,5.50
2022-10-07T02:56:02.943Z,5.17
2022-10-07T02:57:02.984Z,5.37
2022-10-07T02:58:07.400Z,5.27
2022-10-07T02:59:02.715Z,6.30
2022-10-07T03:00:01.445Z,5.00
2022-10-07T03:01:05.070Z,5.10
2022-10-07T03:02:06.057Z,5.43
2022-10-07T03:03:03.073Z,3.60
2022-10-07T03:04:01.032Z,4.37
2022-10-07T03:05:01.400Z,5.40
2022-10-07T03:06:01.279Z,5.00
2022-10-07T03:07:02.278Z,5.40
2022-10-07T03:08:05.285Z,5.50
2022-10-07T03:09:01.633Z,4.30
2022-10-07T03:10:02.188Z,4.50
2022-10-07T03:11:00.926Z,4.40
2022-10-07T03:12:01.129Z,4.40
2022-10-07T03:13:01.787Z,6.03
2022-10-07T03:14:00.948Z,4.00
2022-10-07T03:15:00.957Z,4.90
2022-10-07T03:16:01.029Z,4.00
2022-10-07T03:17:01.017Z,4.40
2022-10-07T03:18:01.244Z,3.80
2022-10-07T03:19:01.490Z,5.10
2022-10-07T03:20:00.940Z,5.00
2022-10-07T03:21:01.236Z,4.37
2022-10-07T03:22:01.268Z,4.17
2022-10-07T03:23:01.076Z,4.70
2022-10-07T03:24:01.345Z,4.10
2022-10-07T03:25:01.091Z,4.80
2022-10-07T03:26:01.226Z,3.70
2022-10-07T03:27:01.230Z,4.63
2022-10-07T03:28:00.980Z,5.77
2022-10-07T03:29:01.206Z,4.27
2022-10-07T03:30:01.285Z,3.40
2022-10-07T03:31:04.443Z,3.90
2022-10-07T03:32:01.435Z,4.70
2022-10-07T03:33:00.942Z,4.87
2022-10-07T03:34:02.841Z,4.90
2022-10-07T03:35:01.342Z,4.20
2022-10-07T03:36:01.317Z,5.70
2022-10-07T03:37:01.280Z,5.00
2022-10-07T03:38:00.943Z,3.80
2022-10-07T03:39:00.928Z,5.50
2022-10-07T03:40:01.238Z,4.43
2022-10-07T03:41:02.071Z,4.53
2022-10-07T03:42:01.281Z,5.70
2022-10-07T03:43:01.089Z,5.30
2022-10-07T03:44:00.942Z,4.00
2022-10-07T03:45:01.619Z,5.40
2022-10-07T03:46:00.994Z,4.60
2022-10-07T03:47:01.203Z,4.30
2022-10-07T03:48:00.939Z,5.20
2022-10-07T03:49:01.225Z,4.50
2022-10-07T03:50:01.236Z,4.57
2022-10-07T03:51:01.041Z,4.90
2022-10-07T03:52:01.324Z,4.57
2022-10-07T03:53:01.243Z,5.50
2022-10-07T03:54:01.029Z,4.90
2022-10-07T03:55:00.937Z,4.30
2022-10-07T03:56:01.310Z,4.10
2022-10-07T03:57:01.247Z,2.77
2022-10-07T03:58:01.225Z,4.60
2022-10-07T03:59:01.391Z,4.80
2022-10-07T04:00:00.951Z,3.80
2022-10-07T04:01:06.375Z,4.77
2022-10-07T04:02:00.965Z,4.10
2022-10-07T04:03:01.533Z,4.00
2022-10-07T04:04:01.039Z,5.70
2022-10-07T04:05:01.224Z,5.00
2022-10-07T04:06:01.482Z,4.70
2022-10-07T04:07:01.063Z,3.47
2022-10-07T04:08:01.044Z,3.67
2022-10-07T04:09:01.260Z,4.63
2022-10-07T04:10:01.000Z,5.10
2022-10-07T04:11:02.159Z,5.20
2022-10-07T04:12:00.939Z,3.87
2022-10-07T04:13:00.975Z,3.70
2022-10-07T04:14:01.310Z,4.33
2022-10-07T04:15:01.005Z,4.07
2022-10-07T04:16:04.960Z,3.97
2022-10-07T04:17:01.247Z,4.00
2022-10-07T04:18:01.160Z,4.30
2022-10-07T04:19:01.254Z,4.10
2022-10-07T04:20:01.257Z,3.53
2022-10-07T04:21:00.964Z,4.80
2022-10-07T04:22:04.966Z,3.77
2022-10-07T04:23:00.947Z,3.70
2022-10-07T04:24:01.075Z,3.23
2022-10-07T04:25:00.944Z,4.27
2022-10-07T04:26:01.647Z,4.60
2022-10-07T04:27:01.267Z,3.67
2022-10-07T04:28:03.268Z,5.00
2022-10-07T04:29:01.517Z,4.80
2022-10-07T04:30:01.600Z,3.90
2022-10-07T04:31:03.563Z,3.00
2022-10-07T04:32:00.937Z,4.10
2022-10-07T04:33:01.307Z,3.63
2022-10-07T04:34:00.967Z,4.77
2022-10-07T04:35:01.650Z,4.00
2022-10-07T04:36:04.137Z,5.00
2022-10-07T04:37:00.981Z,3.00
2022-10-07T04:38:01.229Z,3.90
2022-10-07T04:39:01.341Z,3.37
2022-10-07T04:40:01.443Z,3.70
2022-10-07T04:41:03.780Z,4.00
2022-10-07T04:42:00.947Z,4.33
2022-10-07T04:43:00.930Z,4.67
2022-10-07T04:44:01.090Z,3.47
2022-10-07T04:45:01.241Z,4.00
2022-10-07T04:46:04.284Z,6.00
2022-10-07T04:47:01.032Z,5.00
2022-10-07T04:48:01.834Z,4.70
2022-10-07T04:49:00.954Z,4.30
2022-10-07T04:50:00.962Z,3.87
2022-10-07T04:51:02.294Z,3.97
2022-10-07T04:52:00.965Z,3.40
2022-10-07T04:53:01.243Z,3.37
2022-10-07T04:54:01.111Z,4.30
2022-10-07T04:55:01.236Z,4.37
2022-10-07T04:56:02.309Z,4.50
2022-10-07T04:57:00.955Z,3.70
2022-10-07T04:58:00.937Z,4.27
2022-10-07T04:59:00.941Z,4.50
2022-10-07T05:00:01.013Z,3.60
2022-10-07T05:01:07.811Z,4.07
2022-10-07T05:02:01.312Z,4.57
2022-10-07T05:03:01.416Z,3.97
2022-10-07T05:04:00.945Z,4.20
2022-10-07T05:05:01.759Z,4.10
2022-10-07T05:06:05.645Z,4.70
2022-10-07T05:07:01.238Z,4.07
2022-10-07T05:08:00.963Z,4.67
2022-10-07T05:09:00.951Z,3.77
2022-10-07T05:10:01.250Z,3.90
2022-10-07T05:11:02.816Z,4.80
2022-10-07T05:12:00.935Z,4.10
2022-10-07T05:13:01.224Z,3.80
2022-10-07T05:14:01.226Z,3.23
2022-10-07T05:15:00.931Z,3.57
2022-10-07T05:16:02.163Z,4.90
2022-10-07T05:17:01.257Z,4.30
2022-10-07T05:18:01.245Z,3.87
2022-10-07T05:19:01.280Z,3.27
2022-10-07T05:20:00.960Z,4.10
2022-10-07T05:21:04.029Z,3.90
2022-10-07T05:22:01.314Z,3.10
2022-10-07T05:23:01.254Z,3.70
2022-10-07T05:24:01.477Z,4.37
2022-10-07T05:25:01.606Z,3.60
2022-10-07T05:26:03.360Z,4.00
2022-10-07T05:27:01.278Z,4.00
2022-10-07T05:28:00.990Z,4.60
2022-10-07T05:29:02.114Z,3.50
2022-10-07T05:30:00.919Z,4.20
2022-10-07T05:31:03.460Z,4.67
2022-10-07T05:32:04.999Z,4.70
2022-10-07T05:33:00.939Z,4.40
2022-10-07T05:34:00.936Z,3.80
2022-10-07T05:35:01.215Z,3.87
2022-10-07T05:36:01.950Z,3.57
2022-10-07T05:37:01.251Z,3.60
2022-10-07T05:38:01.645Z,3.53
2022-10-07T05:39:00.948Z,4.73
2022-10-07T05:40:01.239Z,3.90
2022-10-07T05:41:03.677Z,3.47
2022-10-07T05:42:01.233Z,4.33
2022-10-07T05:43:00.927Z,2.93
2022-10-07T05:44:01.276Z,3.27
2022-10-07T05:45:01.261Z,2.97
2022-10-07T05:46:03.358Z,3.70
2022-10-07T05:47:01.244Z,5.17
2022-10-07T05:48:00.927Z,4.30
2022-10-07T05:49:00.973Z,4.37
2022-10-07T05:50:01.235Z,4.40
2022-10-07T05:51:01.547Z,4.00
2022-10-07T05:52:00.991Z,4.47
2022-10-07T05:53:01.253Z,3.87
2022-10-07T05:54:01.063Z,4.90
2022-10-07T05:55:01.335Z,3.80
2022-10-07T05:56:04.554Z,4.00
2022-10-07T05:57:01.544Z,5.40
2022-10-07T05:58:01.227Z,2.90
2022-10-07T05:59:01.005Z,3.90
2022-10-07T06:00:01.176Z,3.93
2022-10-07T06:01:06.031Z,4.10
2022-10-07T06:02:01.088Z,5.60
2022-10-07T06:03:01.111Z,5.50
2022-10-07T06:04:00.972Z,4.90
2022-10-07T06:05:01.057Z,4.70
2022-10-07T06:06:01.217Z,4.97
2022-10-07T06:07:00.935Z,5.50
2022-10-07T06:08:01.192Z,3.87
2022-10-07T06:09:01.362Z,5.23
2022-10-07T06:10:00.938Z,5.90
2022-10-07T06:11:03.425Z,7.00
2022-10-07T06:12:01.253Z,5.53
2022-10-07T06:13:00.929Z,4.80
2022-10-07T06:14:01.477Z,4.87
2022-10-07T06:15:01.215Z,3.67
2022-10-07T06:16:01.950Z,3.87
2022-10-07T06:17:01.311Z,5.10
2022-10-07T06:18:01.264Z,4.10
2022-10-07T06:19:01.067Z,3.83
2022-10-07T06:20:01.344Z,3.90
2022-10-07T06:21:01.810Z,4.10
2022-10-07T06:22:00.957Z,4.90
2022-10-07T06:23:00.966Z,4.30
2022-10-07T06:24:00.990Z,4.37
2022-10-07T06:25:00.943Z,3.87
2022-10-07T06:26:03.302Z,3.80
2022-10-07T06:27:01.688Z,4.00
2022-10-07T06:28:01.020Z,3.80
2022-10-07T06:29:00.936Z,4.80
2022-10-07T06:30:01.579Z,4.60
2022-10-07T06:31:03.601Z,3.87
2022-10-07T06:32:00.967Z,4.70
2022-10-07T06:33:00.941Z,3.60
2022-10-07T06:34:01.207Z,4.20
2022-10-07T06:35:01.249Z,3.87
2022-10-07T06:36:04.425Z,4.00
2022-10-07T06:37:00.940Z,3.97
2022-10-07T06:38:01.226Z,4.70
2022-10-07T06:39:01.258Z,5.20
2022-10-07T06:40:00.935Z,4.30
2022-10-07T06:41:04.575Z,3.80
2022-10-07T06:42:00.926Z,3.60
2022-10-07T06:43:01.630Z,4.50
2022-10-07T06:44:00.924Z,5.20
2022-10-07T06:45:00.934Z,4.00
2022-10-07T06:46:03.188Z,4.00
2022-10-07T06:47:01.240Z,4.20
2022-10-07T06:48:01.253Z,2.63
2022-10-07T06:49:00.938Z,4.20
2022-10-07T06:50:00.937Z,4.10
2022-10-07T06:51:02.299Z,4.10
2022-10-07T06:52:01.387Z,3.67
2022-10-07T06:53:00.978Z,3.13
2022-10-07T06:54:00.940Z,3.80
2022-10-07T06:55:00.967Z,4.00
2022-10-07T06:56:02.381Z,3.10
2022-10-07T06:57:01.249Z,4.20
2022-10-07T06:58:01.239Z,5.00
2022-10-07T06:59:01.261Z,4.17
2022-10-07T07:00:00.980Z,4.20
2022-10-07T07:01:01.054Z,4.10
2022-10-07T07:02:01.031Z,4.30
2022-10-07T07:03:01.610Z,4.00
2022-10-07T07:04:01.019Z,3.87
2022-10-07T07:06:01.388Z,3.83
2022-10-07T07:07:00.926Z,4.73
2022-10-07T07:08:01.372Z,4.00
2022-10-07T07:09:01.306Z,3.60
2022-10-07T07:10:00.950Z,3.97
2022-10-07T07:11:03.050Z,3.63
2022-10-07T07:12:00.936Z,3.70
2022-10-07T07:14:01.584Z,3.40
2022-10-07T07:15:00.936Z,4.03
2022-10-07T07:16:00.935Z,4.47
2022-10-07T07:17:01.034Z,4.07
2022-10-07T07:18:02.814Z,3.77
2022-10-07T07:19:03.371Z,7.50
2022-10-07T07:20:00.933Z,7.30
2022-10-07T07:21:02.221Z,5.73
2022-10-07T07:22:01.220Z,5.20
2022-10-07T07:23:01.610Z,5.40
2022-10-07T07:24:01.647Z,3.40
2022-10-07T07:25:01.350Z,4.10
2022-10-07T07:26:01.214Z,4.00
2022-10-07T07:27:00.931Z,4.77
2022-10-07T07:28:00.976Z,4.23
2022-10-07T07:29:04.652Z,3.67
2022-10-07T07:30:00.964Z,3.80
2022-10-07T07:31:05.877Z,4.00
2022-10-07T07:32:01.247Z,3.93
2022-10-07T07:33:00.961Z,3.83
2022-10-07T07:34:03.824Z,4.90
2022-10-07T07:35:01.282Z,3.43
2022-10-07T07:36:01.173Z,4.30
2022-10-07T07:37:01.566Z,4.40
2022-10-07T07:38:01.335Z,3.37
2022-10-07T07:39:04.216Z,3.37
2022-10-07T07:40:01.240Z,3.33
2022-10-07T07:41:04.616Z,3.80
2022-10-07T07:42:01.352Z,4.50
2022-10-07T07:43:01.221Z,4.93
2022-10-07T07:44:03.896Z,3.87
2022-10-07T07:45:01.276Z,3.87
2022-10-07T07:46:01.306Z,3.40
2022-10-07T07:47:01.883Z,5.40
2022-10-07T07:48:00.952Z,5.10
2022-10-07T07:49:01.270Z,7.83
2022-10-07T07:50:01.268Z,7.90
2022-10-07T07:51:04.985Z,7.00
2022-10-07T07:52:01.796Z,6.10
2022-10-07T07:53:00.952Z,6.80
2022-10-07T07:54:01.305Z,6.00
2022-10-07T07:55:01.273Z,6.60
2022-10-07T07:56:00.957Z,6.37
2022-10-07T07:57:01.253Z,3.83
2022-10-07T07:58:01.691Z,3.87
2022-10-07T07:59:02.342Z,5.00
2022-10-07T08:00:00.971Z,5.10
2022-10-07T08:01:03.199Z,4.60
2022-10-07T08:02:00.949Z,4.83
2022-10-07T08:03:00.942Z,5.07
2022-10-07T08:04:02.263Z,4.97
2022-10-07T08:05:00.933Z,4.20
2022-10-07T08:06:02.756Z,4.60
2022-10-07T08:07:00.969Z,4.10
2022-10-07T08:08:01.224Z,3.73
2022-10-07T08:09:01.421Z,4.67
2022-10-07T08:10:00.971Z,9.57
2022-10-07T08:11:07.069Z,9.50
2022-10-07T08:12:00.926Z,3.83
2022-10-07T08:13:00.932Z,3.87
2022-10-07T08:14:01.341Z,4.50
2022-10-07T08:15:01.234Z,3.70
2022-10-07T08:16:01.737Z,4.60
2022-10-07T08:17:00.938Z,5.00
2022-10-07T08:18:01.257Z,5.10
2022-10-07T08:19:01.235Z,3.90
2022-10-07T08:20:01.286Z,3.90
2022-10-07T08:21:03.310Z,4.80
2022-10-07T08:22:01.230Z,4.77
2022-10-07T08:23:00.942Z,2.60
2022-10-07T08:24:03.306Z,4.37
2022-10-07T08:25:00.944Z,5.10
2022-10-07T08:26:01.528Z,4.80
2022-10-07T08:27:00.944Z,4.20
2022-10-07T08:28:01.004Z,4.00
2022-10-07T08:29:01.693Z,4.80
2022-10-07T08:30:00.955Z,3.97
2022-10-07T08:31:02.656Z,4.00
2022-10-07T08:32:00.930Z,5.00
2022-10-07T08:33:01.596Z,3.67
2022-10-07T08:34:03.207Z,4.63
2022-10-07T08:35:01.434Z,3.40
2022-10-07T08:36:03.796Z,4.50
2022-10-07T08:37:01.249Z,3.50
2022-10-07T08:38:00.945Z,4.20
2022-10-07T08:39:02.794Z,4.57
2022-10-07T08:40:01.252Z,4.13
2022-10-07T08:41:13.907Z,3.67
2022-10-07T08:42:07.687Z,4.10
2022-10-07T08:43:02.255Z,5.10
2022-10-07T08:44:16.679Z,4.40
2022-10-07T08:45:01.310Z,3.70
2022-10-07T08:46:02.498Z,3.43
2022-10-07T08:47:10.170Z,3.90
2022-10-07T08:48:06.951Z,4.00
2022-10-07T08:49:05.843Z,4.20
2022-10-07T08:50:07.235Z,3.57
2022-10-07T08:51:11.659Z,4.47
2022-10-07T08:52:05.039Z,3.80
2022-10-07T08:53:05.514Z,4.60
2022-10-07T08:54:01.370Z,3.80
2022-10-07T08:55:03.214Z,3.90
2022-10-07T08:56:08.991Z,4.60
2022-10-07T08:57:12.924Z,3.83
2022-10-07T08:58:20.429Z,5.60
2022-10-07T08:59:12.359Z,3.60
2022-10-07T09:00:03.145Z,4.50
2022-10-07T09:01:11.491Z,4.20
2022-10-07T09:02:16.591Z,3.67
2022-10-07T09:03:08.849Z,3.77
2022-10-07T09:04:14.792Z,4.80
2022-10-07T09:05:12.132Z,4.80
2022-10-07T09:06:07.531Z,3.90
2022-10-07T09:07:04.368Z,4.67
2022-10-07T09:08:10.570Z,4.67
2022-10-07T09:09:10.450Z,4.07
2022-10-07T09:10:10.298Z,4.40
2022-10-07T09:11:07.992Z,4.60
2022-10-07T09:12:06.841Z,4.20
2022-10-07T09:13:06.392Z,5.00
2022-10-07T09:14:12.803Z,3.80
2022-10-07T09:15:04.869Z,4.00
2022-10-07T09:16:08.084Z,5.50
2022-10-07T09:17:06.073Z,4.70
2022-10-07T09:18:06.668Z,4.77
2022-10-07T09:19:03.193Z,4.47
2022-10-07T09:20:05.514Z,4.00
2022-10-07T09:21:05.247Z,4.90
2022-10-07T09:22:10.032Z,3.27
2022-10-07T09:23:03.166Z,3.90
2022-10-07T09:24:15.389Z,3.90
2022-10-07T09:25:17.742Z,3.90
2022-10-07T09:26:01.523Z,4.47
2022-10-07T09:27:11.207Z,4.40
2022-10-07T09:28:01.018Z,4.00
2022-10-07T09:29:00.936Z,3.50
2022-10-07T09:30:01.505Z,3.30
2022-10-07T09:31:01.306Z,5.47
2022-10-07T09:32:00.961Z,3.53
2022-10-07T09:33:02.662Z,3.87
2022-10-07T09:34:01.435Z,4.10
2022-10-07T09:35:01.233Z,4.00
2022-10-07T09:36:06.218Z,4.10
2022-10-07T09:37:12.800Z,4.30
2022-10-07T09:38:03.387Z,4.50
2022-10-07T09:39:15.736Z,4.27
2022-10-07T09:40:20.537Z,4.07
2022-10-07T09:41:09.334Z,4.80
2022-10-07T09:42:04.936Z,4.20
2022-10-07T09:43:08.735Z,4.00
2022-10-07T09:44:05.334Z,4.80
2022-10-07T09:45:13.663Z,4.30
2022-10-07T09:46:01.064Z,4.17
2022-10-07T09:47:13.334Z,3.57
2022-10-07T09:48:06.651Z,3.23
2022-10-07T09:49:02.729Z,4.63
2022-10-07T09:50:01.966Z,3.20
2022-10-07T09:51:11.739Z,4.77
2022-10-07T09:52:03.601Z,5.00
2022-10-07T09:53:01.552Z,4.40
2022-10-07T09:54:03.720Z,5.00
2022-10-07T09:55:20.415Z,5.30
2022-10-07T09:56:01.009Z,4.77
2022-10-07T09:57:03.969Z,4.37
2022-10-07T09:58:03.529Z,4.63
2022-10-07T09:59:16.452Z,3.47
2022-10-07T10:00:20.407Z,3.77
2022-10-07T10:01:09.298Z,5.00
2022-10-07T10:02:12.463Z,3.73
2022-10-07T10:03:05.805Z,4.60
2022-10-07T10:04:01.449Z,5.00
2022-10-07T10:05:01.508Z,4.50
2022-10-07T10:06:03.591Z,4.30
2022-10-07T10:07:04.715Z,5.47
2022-10-07T10:08:04.772Z,4.67
2022-10-07T10:09:01.310Z,4.87
2022-10-07T10:10:04.366Z,4.00
2022-10-07T10:11:02.900Z,4.10
2022-10-07T10:12:10.097Z,5.40
2022-10-07T10:13:03.761Z,4.30
2022-10-07T10:14:20.411Z,2.87
2022-10-07T10:15:01.259Z,3.70
2022-10-07T10:16:03.180Z,4.70
2022-10-07T10:17:02.996Z,5.10
2022-10-07T10:18:03.048Z,4.80
2022-10-07T10:19:03.445Z,4.60
2022-10-07T10:20:20.436Z,3.50
2022-10-07T10:21:17.245Z,4.70
2022-10-07T10:22:01.126Z,5.00
2022-10-07T10:23:12.316Z,4.00
2022-10-07T10:24:04.014Z,4.87
2022-10-07T10:25:00.953Z,4.97
2022-10-07T10:26:14.684Z,4.47
2022-10-07T10:27:06.005Z,4.60
2022-10-07T10:28:08.980Z,5.50
2022-10-07T10:29:11.742Z,5.00
2022-10-07T10:30:04.670Z,4.33
2022-10-07T10:31:08.918Z,4.13
2022-10-07T10:32:19.927Z,4.40
2022-10-07T10:33:14.562Z,4.87
2022-10-07T10:34:11.335Z,4.63
2022-10-07T10:35:08.006Z,5.23
2022-10-07T10:36:13.020Z,3.83
2022-10-07T10:37:14.390Z,4.80
2022-10-07T10:38:17.940Z,5.00
2022-10-07T10:39:05.414Z,5.40
2022-10-07T10:40:19.110Z,5.00
2022-10-07T10:41:11.068Z,5.80
2022-10-07T10:42:06.968Z,4.90
2022-10-07T10:43:16.199Z,6.67
2022-10-07T10:44:20.424Z,4.23
2022-10-07T10:45:14.645Z,5.37
2022-10-07T10:46:16.053Z,5.07
2022-10-07T10:47:12.752Z,5.30
2022-10-07T10:48:17.960Z,4.80
2022-10-07T10:49:18.227Z,5.00
2022-10-07T10:50:14.514Z,5.30
2022-10-07T10:51:12.816Z,4.87
2022-10-07T10:52:18.757Z,4.37
2022-10-07T10:53:12.620Z,5.60
2022-10-07T10:54:15.195Z,4.80
2022-10-07T10:55:17.179Z,5.50
2022-10-07T10:56:06.814Z,5.50
2022-10-07T10:57:08.870Z,4.27
2022-10-07T10:58:14.626Z,3.90
2022-10-07T10:59:13.410Z,5.00
2022-10-07T11:00:09.053Z,5.40
2022-10-07T11:01:16.005Z,5.43
2022-10-07T11:02:18.065Z,4.23
2022-10-07T11:03:20.537Z,5.83
2022-10-07T11:04:17.910Z,4.07
2022-10-07T11:05:05.039Z,5.00
2022-10-07T11:06:06.717Z,4.50
2022-10-07T11:07:06.729Z,5.20
2022-10-07T11:08:09.397Z,5.30
2022-10-07T11:09:02.967Z,4.10
2022-10-07T11:10:06.392Z,4.00
2022-10-07T11:11:04.673Z,5.00
2022-10-07T11:12:04.858Z,4.73
2022-10-07T11:13:18.831Z,4.60
2022-10-07T11:14:08.594Z,4.50
2022-10-07T11:15:13.430Z,5.60
2022-10-07T11:16:08.496Z,4.80
2022-10-07T11:17:04.491Z,5.10
2022-10-07T11:18:07.691Z,5.00
2022-10-07T11:19:07.018Z,4.60
2022-10-07T11:20:13.621Z,5.20
2022-10-07T11:21:05.494Z,4.60
2022-10-07T11:22:02.108Z,5.10
2022-10-07T11:23:07.438Z,4.00
2022-10-07T11:24:08.431Z,5.47
2022-10-07T11:25:09.080Z,4.27
2022-10-07T11:26:10.044Z,5.00
2022-10-07T11:27:09.375Z,4.77
2022-10-07T11:28:08.516Z,3.27
2022-10-07T11:29:12.573Z,5.47
2022-10-07T11:30:06.215Z,4.40
2022-10-07T11:31:07.439Z,6.00
2022-10-07T11:32:06.835Z,6.00
2022-10-07T11:33:07.136Z,4.60
2022-10-07T11:34:14.680Z,5.40
2022-10-07T11:35:17.527Z,5.13
2022-10-07T11:36:10.242Z,4.90
2022-10-07T11:37:09.579Z,5.23
2022-10-07T11:38:13.549Z,4.90
2022-10-07T11:39:01.227Z,5.40
2022-10-07T11:40:04.140Z,4.77
2022-10-07T11:41:07.634Z,6.07
2022-10-07T11:42:07.200Z,4.63
2022-10-07T11:43:07.680Z,4.13
2022-10-07T11:44:06.192Z,5.23
2022-10-07T11:45:05.867Z,5.77
2022-10-07T11:46:11.171Z,4.30
2022-10-07T11:47:05.396Z,6.50
2022-10-07T11:48:08.117Z,5.40
2022-10-07T11:49:04.343Z,4.30
2022-10-07T11:50:07.721Z,5.50
2022-10-07T11:51:04.392Z,4.47
2022-10-07T11:52:04.573Z,5.67
2022-10-07T11:53:07.238Z,6.00
2022-10-07T11:54:04.309Z,4.90
2022-10-07T11:55:06.864Z,5.10
2022-10-07T11:56:04.912Z,5.30
2022-10-07T11:57:00.998Z,5.80
2022-10-07T11:58:03.375Z,5.40
2022-10-07T11:59:03.991Z,5.00
2022-10-07T12:00:04.879Z,5.67
2022-10-07T12:01:20.428Z,4.33
2022-10-07T12:02:02.156Z,5.07
2022-10-07T12:03:11.735Z,5.70
2022-10-07T12:04:20.411Z,5.10
2022-10-07T12:05:03.317Z,4.80
2022-10-07T12:06:07.813Z,4.90
2022-10-07T12:07:20.477Z,5.60
2022-10-07T12:08:11.545Z,4.73
2022-10-07T12:09:20.419Z,4.60
2022-10-07T12:10:20.427Z,5.80
2022-10-07T12:11:20.405Z,6.40
2022-10-07T12:12:01.549Z,5.60
2022-10-07T12:13:20.415Z,5.07
2022-10-07T12:14:20.410Z,4.30
2022-10-07T12:15:02.841Z,5.80
2022-10-07T12:16:20.480Z,4.47
2022-10-07T12:17:20.402Z,5.10
2022-10-07T12:18:20.409Z,4.03
2022-10-07T12:19:15.237Z,5.87
2022-10-07T12:20:20.402Z,4.70
2022-10-07T12:21:03.842Z,5.00
2022-10-07T12:22:15.137Z,5.30
2022-10-07T12:23:20.410Z,5.80
2022-10-07T12:24:13.516Z,4.77
2022-10-07T12:25:20.449Z,6.27
2022-10-07T12:26:03.527Z,5.10
2022-10-07T12:27:07.954Z,5.90
2022-10-07T12:28:01.107Z,5.00
2022-10-07T12:29:02.987Z,6.30
2022-10-07T12:30:01.287Z,6.50
2022-10-07T12:31:03.180Z,5.50
2022-10-07T12:32:02.450Z,5.70
2022-10-07T12:33:14.476Z,4.20
2022-10-07T12:34:09.656Z,5.80
2022-10-07T12:35:20.580Z,5.70
2022-10-07T12:36:20.434Z,5.30
2022-10-07T12:37:20.408Z,5.73
2022-10-07T12:38:02.422Z,5.47
2022-10-07T12:39:20.415Z,5.07
2022-10-07T12:40:07.575Z,5.27
2022-10-07T12:41:14.573Z,5.40
2022-10-07T12:42:04.657Z,5.60
2022-10-07T12:43:14.774Z,5.60
2022-10-07T12:44:13.648Z,4.53
2022-10-07T12:45:04.330Z,4.50
2022-10-07T12:46:05.488Z,6.10
2022-10-07T12:47:11.925Z,4.80
2022-10-07T12:48:03.313Z,4.87
2022-10-07T12:49:05.821Z,4.80
2022-10-07T12:50:09.238Z,4.70
2022-10-07T12:51:04.412Z,3.90
2022-10-07T12:52:04.830Z,5.60
2022-10-07T12:53:02.737Z,4.60
2022-10-07T12:54:03.880Z,5.43
2022-10-07T12:55:05.661Z,4.97
2022-10-07T12:56:01.334Z,4.23
2022-10-07T12:57:03.052Z,4.50
2022-10-07T12:58:13.357Z,5.30
2022-10-07T12:59:20.407Z,5.00
2022-10-07T13:00:04.206Z,4.80
2022-10-07T13:01:17.398Z,5.03
2022-10-07T13:02:20.536Z,5.00
2022-10-07T13:03:20.426Z,4.97
2022-10-07T13:04:20.408Z,6.00
2022-10-07T13:05:20.411Z,5.90
2022-10-07T13:06:20.428Z,5.03
2022-10-07T13:07:20.407Z,5.13
2022-10-07T13:08:20.404Z,4.53
2022-10-07T13:09:20.465Z,5.37
2022-10-07T13:10:20.403Z,5.10
2022-10-07T13:11:20.408Z,5.80
2022-10-07T13:12:16.553Z,4.73
2022-10-07T13:13:06.507Z,4.87
2022-10-07T13:14:05.841Z,4.63
2022-10-07T13:15:12.634Z,5.10
2022-10-07T13:16:07.859Z,4.23
2022-10-07T13:17:17.227Z,5.30
2022-10-07T13:18:11.955Z,5.50
2022-10-07T13:19:07.111Z,6.40
2022-10-07T13:20:10.846Z,5.57